sensor_id;sensor_type;location;lat;lon;timestamp;P1;durP1;ratioP1;P2;durP2;ratioP2
54683;SDS011;40582;53.100;6.686;2023-04-24T00:02:21;1.90;;;1.42;;
54683;SDS011;40582;53.100;6.686;2023-04-24T00:04:47;1.02;;;1.00;;
54683;SDS011;40582;53.100;6.686;2023-04-24T00:07:14;1.20;;;1.10;;
54683;SDS011;40582;53.100;6.686;2023-04-24T00:09:42;1.77;;;1.20;;
54683;SDS011;40582;53.100;6.686;2023-04-24T00:12:08;3.83;;;1.20;;
54683;SDS011;40582;53.100;6.686;2023-04-24T00:14:34;2.28;;;1.00;;
54683;SDS011;40582;53.100;6.686;2023-04-24T00:17:01;3.58;;;0.80;;
54683;SDS011;40582;53.100;6.686;2023-04-24T00:19:27;1.95;;;1.10;;
54683;SDS011;40582;53.100;6.686;2023-04-24T00:21:54;0.60;;;0.60;;
54683;SDS011;40582;53.100;6.686;2023-04-24T00:24:20;0.70;;;0.70;;
54683;SDS011;40582;53.100;6.686;2023-04-24T00:26:46;1.75;;;1.00;;
54683;SDS011;40582;53.100;6.686;2023-04-24T00:29:12;0.82;;;0.80;;
54683;SDS011;40582;53.100;6.686;2023-04-24T00:31:38;5.15;;;0.85;;
54683;SDS011;40582;53.100;6.686;2023-04-24T00:34:04;0.70;;;0.70;;
54683;SDS011;40582;53.100;6.686;2023-04-24T00:36:30;0.70;;;0.60;;
54683;SDS011;40582;53.100;6.686;2023-04-24T00:38:58;1.05;;;0.63;;
54683;SDS011;40582;53.100;6.686;2023-04-24T00:41:24;0.63;;;0.63;;
54683;SDS011;40582;53.100;6.686;2023-04-24T00:43:51;0.50;;;0.50;;
54683;SDS011;40582;53.100;6.686;2023-04-24T00:46:17;0.60;;;0.60;;
54683;SDS011;40582;53.100;6.686;2023-04-24T00:48:43;2.15;;;0.70;;
54683;SDS011;40582;53.100;6.686;2023-04-24T00:51:09;1.65;;;0.70;;
54683;SDS011;40582;53.100;6.686;2023-04-24T00:53:35;0.50;;;0.50;;
54683;SDS011;40582;53.100;6.686;2023-04-24T00:56:01;1.40;;;0.80;;
54683;SDS011;40582;53.100;6.686;2023-04-24T00:58:28;1.38;;;0.80;;
54683;SDS011;40582;53.100;6.686;2023-04-24T01:00:54;1.00;;;0.88;;
54683;SDS011;40582;53.100;6.686;2023-04-24T01:03:24;1.35;;;0.80;;
54683;SDS011;40582;53.100;6.686;2023-04-24T01:05:51;1.42;;;0.90;;
54683;SDS011;40582;53.100;6.686;2023-04-24T01:08:19;1.13;;;0.90;;
54683;SDS011;40582;53.100;6.686;2023-04-24T01:10:48;0.93;;;0.80;;
54683;SDS011;40582;53.100;6.686;2023-04-24T01:13:16;3.22;;;0.80;;
54683;SDS011;40582;53.100;6.686;2023-04-24T01:15:42;1.55;;;0.90;;
54683;SDS011;40582;53.100;6.686;2023-04-24T01:18:08;0.73;;;0.73;;
54683;SDS011;40582;53.100;6.686;2023-04-24T01:20:34;2.28;;;0.70;;
54683;SDS011;40582;53.100;6.686;2023-04-24T01:23:01;2.05;;;0.70;;
54683;SDS011;40582;53.100;6.686;2023-04-24T01:25:27;0.80;;;0.80;;
54683;SDS011;40582;53.100;6.686;2023-04-24T01:27:53;1.75;;;0.82;;
54683;SDS011;40582;53.100;6.686;2023-04-24T01:30:19;1.20;;;1.00;;
54683;SDS011;40582;53.100;6.686;2023-04-24T01:32:45;2.20;;;1.05;;
54683;SDS011;40582;53.100;6.686;2023-04-24T01:35:11;1.10;;;1.00;;
54683;SDS011;40582;53.100;6.686;2023-04-24T01:37:37;2.08;;;1.05;;
54683;SDS011;40582;53.100;6.686;2023-04-24T01:40:06;2.17;;;1.02;;
54683;SDS011;40582;53.100;6.686;2023-04-24T01:42:32;1.08;;;0.98;;
54683;SDS011;40582;53.100;6.686;2023-04-24T01:44:59;1.30;;;1.20;;
54683;SDS011;40582;53.100;6.686;2023-04-24T01:47:26;1.40;;;1.30;;
54683;SDS011;40582;53.100;6.686;2023-04-24T01:49:53;1.20;;;1.20;;
54683;SDS011;40582;53.100;6.686;2023-04-24T01:52:18;1.10;;;1.10;;
54683;SDS011;40582;53.100;6.686;2023-04-24T01:54:44;1.50;;;1.40;;
54683;SDS011;40582;53.100;6.686;2023-04-24T01:57:10;1.60;;;1.50;;
54683;SDS011;40582;53.100;6.686;2023-04-24T01:59:36;2.65;;;1.40;;
54683;SDS011;40582;53.100;6.686;2023-04-24T02:02:04;1.63;;;1.50;;
54683;SDS011;40582;53.100;6.686;2023-04-24T02:04:30;1.80;;;1.70;;
54683;SDS011;40582;53.100;6.686;2023-04-24T02:06:56;1.80;;;1.70;;
54683;SDS011;40582;53.100;6.686;2023-04-24T02:09:22;2.20;;;2.00;;
54683;SDS011;40582;53.100;6.686;2023-04-24T02:11:48;2.20;;;2.00;;
54683;SDS011;40582;53.100;6.686;2023-04-24T02:14:13;2.20;;;2.10;;
54683;SDS011;40582;53.100;6.686;2023-04-24T02:16:39;3.35;;;2.63;;
54683;SDS011;40582;53.100;6.686;2023-04-24T02:19:05;2.85;;;2.65;;
54683;SDS011;40582;53.100;6.686;2023-04-24T02:21:31;5.57;;;2.47;;
54683;SDS011;40582;53.100;6.686;2023-04-24T02:23:57;2.88;;;2.67;;
54683;SDS011;40582;53.100;6.686;2023-04-24T02:26:23;3.05;;;2.85;;
54683;SDS011;40582;53.100;6.686;2023-04-24T02:28:49;3.80;;;3.53;;
54683;SDS011;40582;53.100;6.686;2023-04-24T02:31:15;3.67;;;3.33;;
54683;SDS011;40582;53.100;6.686;2023-04-24T02:33:41;3.80;;;3.40;;
54683;SDS011;40582;53.100;6.686;2023-04-24T02:36:06;3.70;;;3.50;;
54683;SDS011;40582;53.100;6.686;2023-04-24T02:38:32;3.97;;;3.58;;
54683;SDS011;40582;53.100;6.686;2023-04-24T02:40:58;3.88;;;3.58;;
54683;SDS011;40582;53.100;6.686;2023-04-24T02:43:23;5.18;;;4.40;;
54683;SDS011;40582;53.100;6.686;2023-04-24T02:45:49;4.35;;;3.83;;
54683;SDS011;40582;53.100;6.686;2023-04-24T02:48:15;4.20;;;3.90;;
54683;SDS011;40582;53.100;6.686;2023-04-24T02:50:42;3.70;;;3.50;;
54683;SDS011;40582;53.100;6.686;2023-04-24T02:53:07;4.15;;;3.40;;
54683;SDS011;40582;53.100;6.686;2023-04-24T02:55:33;4.00;;;3.70;;
54683;SDS011;40582;53.100;6.686;2023-04-24T02:57:59;4.45;;;4.05;;
54683;SDS011;40582;53.100;6.686;2023-04-24T03:00:25;4.07;;;3.75;;
54683;SDS011;40582;53.100;6.686;2023-04-24T03:02:50;4.07;;;3.70;;
54683;SDS011;40582;53.100;6.686;2023-04-24T03:05:16;4.22;;;3.83;;
54683;SDS011;40582;53.100;6.686;2023-04-24T03:07:42;4.10;;;3.80;;
54683;SDS011;40582;53.100;6.686;2023-04-24T03:10:07;4.03;;;3.72;;
54683;SDS011;40582;53.100;6.686;2023-04-24T03:12:33;4.10;;;3.80;;
54683;SDS011;40582;53.100;6.686;2023-04-24T03:14:59;4.15;;;3.78;;
54683;SDS011;40582;53.100;6.686;2023-04-24T03:17:25;4.90;;;4.15;;
54683;SDS011;40582;53.100;6.686;2023-04-24T03:19:50;4.50;;;4.00;;
54683;SDS011;40582;53.100;6.686;2023-04-24T03:22:16;4.22;;;3.83;;
54683;SDS011;40582;53.100;6.686;2023-04-24T03:24:42;3.65;;;3.35;;
54683;SDS011;40582;53.100;6.686;2023-04-24T03:27:07;4.22;;;3.92;;
54683;SDS011;40582;53.100;6.686;2023-04-24T03:29:33;4.32;;;3.88;;
54683;SDS011;40582;53.100;6.686;2023-04-24T03:31:59;4.07;;;3.78;;
54683;SDS011;40582;53.100;6.686;2023-04-24T03:34:24;4.30;;;3.60;;
54683;SDS011;40582;53.100;6.686;2023-04-24T03:36:50;3.85;;;3.55;;
54683;SDS011;40582;53.100;6.686;2023-04-24T03:39:16;3.70;;;3.40;;
54683;SDS011;40582;53.100;6.686;2023-04-24T03:41:41;8.35;;;3.40;;
54683;SDS011;40582;53.100;6.686;2023-04-24T03:44:07;3.40;;;3.08;;
54683;SDS011;40582;53.100;6.686;2023-04-24T03:46:33;4.00;;;3.33;;
54683;SDS011;40582;53.100;6.686;2023-04-24T03:48:58;3.72;;;3.42;;
54683;SDS011;40582;53.100;6.686;2023-04-24T03:51:24;4.15;;;3.72;;
54683;SDS011;40582;53.100;6.686;2023-04-24T03:53:50;3.92;;;3.28;;
54683;SDS011;40582;53.100;6.686;2023-04-24T03:56:16;3.35;;;3.05;;
54683;SDS011;40582;53.100;6.686;2023-04-24T03:58:42;3.40;;;3.10;;
54683;SDS011;40582;53.100;6.686;2023-04-24T04:01:07;3.30;;;3.10;;
54683;SDS011;40582;53.100;6.686;2023-04-24T04:03:33;4.28;;;2.67;;
54683;SDS011;40582;53.100;6.686;2023-04-24T04:05:59;3.00;;;2.70;;
54683;SDS011;40582;53.100;6.686;2023-04-24T04:08:24;2.97;;;2.72;;
54683;SDS011;40582;53.100;6.686;2023-04-24T04:10:50;2.97;;;2.67;;
54683;SDS011;40582;53.100;6.686;2023-04-24T04:13:16;3.03;;;2.72;;
54683;SDS011;40582;53.100;6.686;2023-04-24T04:15:41;3.17;;;2.90;;
54683;SDS011;40582;53.100;6.686;2023-04-24T04:18:07;2.83;;;2.63;;
54683;SDS011;40582;53.100;6.686;2023-04-24T04:20:33;2.90;;;2.70;;
54683;SDS011;40582;53.100;6.686;2023-04-24T04:22:59;3.55;;;3.25;;
54683;SDS011;40582;53.100;6.686;2023-04-24T04:25:25;3.50;;;3.20;;
54683;SDS011;40582;53.100;6.686;2023-04-24T04:27:50;4.10;;;3.70;;
54683;SDS011;40582;53.100;6.686;2023-04-24T04:30:17;4.30;;;3.90;;
54683;SDS011;40582;53.100;6.686;2023-04-24T04:32:43;4.32;;;3.92;;
54683;SDS011;40582;53.100;6.686;2023-04-24T04:35:09;3.67;;;3.38;;
54683;SDS011;40582;53.100;6.686;2023-04-24T04:37:35;4.15;;;3.85;;
54683;SDS011;40582;53.100;6.686;2023-04-24T04:40:01;3.95;;;3.55;;
54683;SDS011;40582;53.100;6.686;2023-04-24T04:42:36;6.55;;;3.60;;
54683;SDS011;40582;53.100;6.686;2023-04-24T04:45:06;4.65;;;3.60;;
54683;SDS011;40582;53.100;6.686;2023-04-24T04:47:34;3.58;;;3.38;;
54683;SDS011;40582;53.100;6.686;2023-04-24T04:49:59;4.03;;;3.25;;
54683;SDS011;40582;53.100;6.686;2023-04-24T04:52:26;5.32;;;3.38;;
54683;SDS011;40582;53.100;6.686;2023-04-24T04:54:52;4.68;;;3.17;;
54683;SDS011;40582;53.100;6.686;2023-04-24T04:57:18;2.92;;;2.72;;
54683;SDS011;40582;53.100;6.686;2023-04-24T04:59:43;4.00;;;3.20;;
54683;SDS011;40582;53.100;6.686;2023-04-24T05:02:09;3.35;;;2.78;;
54683;SDS011;40582;53.100;6.686;2023-04-24T05:04:35;2.50;;;2.30;;
54683;SDS011;40582;53.100;6.686;2023-04-24T05:07:01;9.65;;;2.80;;
54683;SDS011;40582;53.100;6.686;2023-04-24T05:09:26;2.35;;;2.15;;
54683;SDS011;40582;53.100;6.686;2023-04-24T05:11:54;3.53;;;2.00;;
54683;SDS011;40582;53.100;6.686;2023-04-24T05:14:20;3.15;;;1.90;;
54683;SDS011;40582;53.100;6.686;2023-04-24T05:16:46;3.75;;;1.77;;
54683;SDS011;40582;53.100;6.686;2023-04-24T05:19:12;5.30;;;1.42;;
54683;SDS011;40582;53.100;6.686;2023-04-24T05:21:40;3.92;;;1.30;;
54683;SDS011;40582;53.100;6.686;2023-04-24T05:24:06;1.23;;;1.13;;
54683;SDS011;40582;53.100;6.686;2023-04-24T05:26:32;1.88;;;1.20;;
54683;SDS011;40582;53.100;6.686;2023-04-24T05:28:57;0.90;;;0.88;;
54683;SDS011;40582;53.100;6.686;2023-04-24T05:31:23;4.75;;;1.08;;
54683;SDS011;40582;53.100;6.686;2023-04-24T05:33:50;4.57;;;1.02;;
54683;SDS011;40582;53.100;6.686;2023-04-24T05:36:16;1.70;;;1.17;;
54683;SDS011;40582;53.100;6.686;2023-04-24T05:38:41;1.02;;;0.93;;
54683;SDS011;40582;53.100;6.686;2023-04-24T05:41:07;0.85;;;0.85;;
54683;SDS011;40582;53.100;6.686;2023-04-24T05:43:33;0.88;;;0.88;;
54683;SDS011;40582;53.100;6.686;2023-04-24T05:45:58;7.05;;;2.60;;
54683;SDS011;40582;53.100;6.686;2023-04-24T05:48:24;0.80;;;0.80;;
54683;SDS011;40582;53.100;6.686;2023-04-24T05:50:50;1.00;;;1.00;;
54683;SDS011;40582;53.100;6.686;2023-04-24T05:53:17;2.78;;;1.30;;
54683;SDS011;40582;53.100;6.686;2023-04-24T05:55:43;1.10;;;1.00;;
54683;SDS011;40582;53.100;6.686;2023-04-24T05:58:09;0.90;;;0.90;;
54683;SDS011;40582;53.100;6.686;2023-04-24T06:00:36;1.35;;;1.20;;
54683;SDS011;40582;53.100;6.686;2023-04-24T06:03:02;1.25;;;1.15;;
54683;SDS011;40582;53.100;6.686;2023-04-24T06:05:28;1.08;;;1.00;;
54683;SDS011;40582;53.100;6.686;2023-04-24T06:07:55;1.08;;;1.02;;
54683;SDS011;40582;53.100;6.686;2023-04-24T06:10:21;1.95;;;1.10;;
54683;SDS011;40582;53.100;6.686;2023-04-24T06:12:47;0.90;;;0.90;;
54683;SDS011;40582;53.100;6.686;2023-04-24T06:15:12;1.42;;;0.90;;
54683;SDS011;40582;53.100;6.686;2023-04-24T06:17:38;1.00;;;1.00;;
54683;SDS011;40582;53.100;6.686;2023-04-24T06:20:04;1.20;;;1.10;;
54683;SDS011;40582;53.100;6.686;2023-04-24T06:22:31;1.27;;;1.10;;
54683;SDS011;40582;53.100;6.686;2023-04-24T06:24:57;2.50;;;1.05;;
54683;SDS011;40582;53.100;6.686;2023-04-24T06:27:24;1.00;;;1.00;;
54683;SDS011;40582;53.100;6.686;2023-04-24T06:29:50;1.77;;;0.90;;
54683;SDS011;40582;53.100;6.686;2023-04-24T06:32:20;1.65;;;1.08;;
54683;SDS011;40582;53.100;6.686;2023-04-24T06:34:47;2.63;;;1.50;;
54683;SDS011;40582;53.100;6.686;2023-04-24T06:37:12;3.45;;;2.22;;
54683;SDS011;40582;53.100;6.686;2023-04-24T06:39:39;3.08;;;2.72;;
54683;SDS011;40582;53.100;6.686;2023-04-24T06:42:04;5.13;;;3.33;;
54683;SDS011;40582;53.100;6.686;2023-04-24T06:44:30;7.07;;;3.90;;
54683;SDS011;40582;53.100;6.686;2023-04-24T06:46:56;7.00;;;3.72;;
54683;SDS011;40582;53.100;6.686;2023-04-24T06:49:21;4.00;;;3.60;;
54683;SDS011;40582;53.100;6.686;2023-04-24T06:51:47;4.22;;;3.70;;
54683;SDS011;40582;53.100;6.686;2023-04-24T06:54:13;6.47;;;4.35;;
54683;SDS011;40582;53.100;6.686;2023-04-24T06:56:38;4.93;;;4.18;;
54683;SDS011;40582;53.100;6.686;2023-04-24T06:59:04;5.32;;;4.20;;
54683;SDS011;40582;53.100;6.686;2023-04-24T07:01:30;11.15;;;5.00;;
54683;SDS011;40582;53.100;6.686;2023-04-24T07:03:55;5.82;;;4.80;;
54683;SDS011;40582;53.100;6.686;2023-04-24T07:06:21;5.70;;;4.65;;
54683;SDS011;40582;53.100;6.686;2023-04-24T07:08:49;9.07;;;5.47;;
54683;SDS011;40582;53.100;6.686;2023-04-24T07:11:14;6.00;;;4.82;;
54683;SDS011;40582;53.100;6.686;2023-04-24T07:13:40;9.68;;;5.50;;
54683;SDS011;40582;53.100;6.686;2023-04-24T07:16:09;8.63;;;5.97;;
54683;SDS011;40582;53.100;6.686;2023-04-24T07:18:36;6.45;;;5.07;;
54683;SDS011;40582;53.100;6.686;2023-04-24T07:21:02;7.70;;;5.63;;
54683;SDS011;40582;53.100;6.686;2023-04-24T07:23:28;8.65;;;5.35;;
54683;SDS011;40582;53.100;6.686;2023-04-24T07:25:53;8.70;;;3.97;;
54683;SDS011;40582;53.100;6.686;2023-04-24T07:28:19;4.97;;;3.50;;
54683;SDS011;40582;53.100;6.686;2023-04-24T07:30:45;4.95;;;3.20;;
54683;SDS011;40582;53.100;6.686;2023-04-24T07:33:11;3.25;;;2.65;;
54683;SDS011;40582;53.100;6.686;2023-04-24T07:35:38;4.57;;;2.95;;
54683;SDS011;40582;53.100;6.686;2023-04-24T07:38:04;4.97;;;2.60;;
54683;SDS011;40582;53.100;6.686;2023-04-24T07:40:30;3.40;;;2.50;;
54683;SDS011;40582;53.100;6.686;2023-04-24T07:42:55;6.13;;;3.08;;
54683;SDS011;40582;53.100;6.686;2023-04-24T07:45:21;3.10;;;2.30;;
54683;SDS011;40582;53.100;6.686;2023-04-24T07:47:48;6.60;;;2.80;;
54683;SDS011;40582;53.100;6.686;2023-04-24T07:50:15;5.95;;;2.33;;
54683;SDS011;40582;53.100;6.686;2023-04-24T07:52:41;4.88;;;2.72;;
54683;SDS011;40582;53.100;6.686;2023-04-24T07:55:06;6.35;;;2.78;;
54683;SDS011;40582;53.100;6.686;2023-04-24T07:57:33;7.90;;;2.20;;
54683;SDS011;40582;53.100;6.686;2023-04-24T07:59:59;5.10;;;2.42;;
54683;SDS011;40582;53.100;6.686;2023-04-24T08:02:24;6.35;;;2.50;;
54683;SDS011;40582;53.100;6.686;2023-04-24T08:04:54;6.05;;;2.70;;
54683;SDS011;40582;53.100;6.686;2023-04-24T08:07:20;5.45;;;2.53;;
54683;SDS011;40582;53.100;6.686;2023-04-24T08:09:46;5.20;;;2.78;;
54683;SDS011;40582;53.100;6.686;2023-04-24T08:12:12;6.30;;;3.08;;
54683;SDS011;40582;53.100;6.686;2023-04-24T08:14:37;5.30;;;2.40;;
54683;SDS011;40582;53.100;6.686;2023-04-24T08:17:03;7.22;;;2.50;;
54683;SDS011;40582;53.100;6.686;2023-04-24T08:19:29;9.70;;;3.10;;
54683;SDS011;40582;53.100;6.686;2023-04-24T08:21:54;8.18;;;4.05;;
54683;SDS011;40582;53.100;6.686;2023-04-24T08:24:20;10.65;;;3.70;;
54683;SDS011;40582;53.100;6.686;2023-04-24T08:26:47;9.32;;;4.18;;
54683;SDS011;40582;53.100;6.686;2023-04-24T08:29:15;6.45;;;4.55;;
54683;SDS011;40582;53.100;6.686;2023-04-24T08:31:41;12.32;;;5.68;;
54683;SDS011;40582;53.100;6.686;2023-04-24T08:34:07;10.73;;;7.13;;
54683;SDS011;40582;53.100;6.686;2023-04-24T08:36:32;16.90;;;7.43;;
54683;SDS011;40582;53.100;6.686;2023-04-24T08:38:58;17.40;;;8.93;;
54683;SDS011;40582;53.100;6.686;2023-04-24T08:41:24;15.00;;;9.73;;
54683;SDS011;40582;53.100;6.686;2023-04-24T08:43:51;22.50;;;12.05;;
54683;SDS011;40582;53.100;6.686;2023-04-24T08:46:18;19.15;;;10.93;;
54683;SDS011;40582;53.100;6.686;2023-04-24T08:48:45;23.50;;;12.52;;
54683;SDS011;40582;53.100;6.686;2023-04-24T08:51:11;21.38;;;12.80;;
54683;SDS011;40582;53.100;6.686;2023-04-24T08:53:37;26.50;;;12.90;;
54683;SDS011;40582;53.100;6.686;2023-04-24T08:56:03;17.77;;;11.77;;
54683;SDS011;40582;53.100;6.686;2023-04-24T08:58:29;23.50;;;12.43;;
54683;SDS011;40582;53.100;6.686;2023-04-24T09:00:56;21.35;;;12.73;;
54683;SDS011;40582;53.100;6.686;2023-04-24T09:03:23;20.55;;;11.63;;
54683;SDS011;40582;53.100;6.686;2023-04-24T09:05:50;22.73;;;11.63;;
54683;SDS011;40582;53.100;6.686;2023-04-24T09:08:18;24.95;;;11.18;;
54683;SDS011;40582;53.100;6.686;2023-04-24T09:10:44;19.15;;;11.00;;
54683;SDS011;40582;53.100;6.686;2023-04-24T09:13:10;28.60;;;11.18;;
54683;SDS011;40582;53.100;6.686;2023-04-24T09:15:40;27.40;;;11.32;;
54683;SDS011;40582;53.100;6.686;2023-04-24T09:18:06;20.73;;;10.85;;
54683;SDS011;40582;53.100;6.686;2023-04-24T09:20:32;25.33;;;10.95;;
54683;SDS011;40582;53.100;6.686;2023-04-24T09:22:58;18.27;;;11.98;;
54683;SDS011;40582;53.100;6.686;2023-04-24T09:25:31;22.27;;;12.10;;
54683;SDS011;40582;53.100;6.686;2023-04-24T09:28:00;19.00;;;12.20;;
54683;SDS011;40582;53.100;6.686;2023-04-24T09:30:27;26.08;;;13.23;;
54683;SDS011;40582;53.100;6.686;2023-04-24T09:33:35;19.65;;;12.30;;
54683;SDS011;40582;53.100;6.686;2023-04-24T09:35:42;19.60;;;12.10;;
54683;SDS011;40582;53.100;6.686;2023-04-24T09:38:14;18.73;;;10.68;;
54683;SDS011;40582;53.100;6.686;2023-04-24T09:40:39;18.75;;;12.15;;
54683;SDS011;40582;53.100;6.686;2023-04-24T09:43:09;17.67;;;10.90;;
54683;SDS011;40582;53.100;6.686;2023-04-24T09:45:36;17.50;;;10.13;;
54683;SDS011;40582;53.100;6.686;2023-04-24T09:48:04;23.35;;;9.05;;
54683;SDS011;40582;53.100;6.686;2023-04-24T09:50:33;14.27;;;8.77;;
54683;SDS011;40582;53.100;6.686;2023-04-24T09:53:03;16.60;;;8.13;;
54683;SDS011;40582;53.100;6.686;2023-04-24T09:55:30;15.32;;;7.93;;
54683;SDS011;40582;53.100;6.686;2023-04-24T09:57:57;17.55;;;7.20;;
54683;SDS011;40582;53.100;6.686;2023-04-24T10:00:26;11.27;;;7.03;;
54683;SDS011;40582;53.100;6.686;2023-04-24T10:02:56;15.35;;;7.55;;
54683;SDS011;40582;53.100;6.686;2023-04-24T10:05:29;18.25;;;7.78;;
54683;SDS011;40582;53.100;6.686;2023-04-24T10:08:11;18.90;;;7.65;;
54683;SDS011;40582;53.100;6.686;2023-04-24T10:10:41;19.33;;;7.00;;
54683;SDS011;40582;53.100;6.686;2023-04-24T10:13:09;24.88;;;7.00;;
54683;SDS011;40582;53.100;6.686;2023-04-24T10:15:36;21.50;;;7.03;;
54683;SDS011;40582;53.100;6.686;2023-04-24T10:18:03;17.02;;;6.63;;
54683;SDS011;40582;53.100;6.686;2023-04-24T10:20:31;22.65;;;7.30;;
54683;SDS011;40582;53.100;6.686;2023-04-24T10:22:57;15.50;;;6.05;;
54683;SDS011;40582;53.100;6.686;2023-04-24T10:25:24;18.63;;;6.70;;
54683;SDS011;40582;53.100;6.686;2023-04-24T10:27:52;23.70;;;6.53;;
54683;SDS011;40582;53.100;6.686;2023-04-24T10:30:19;16.45;;;5.53;;
54683;SDS011;40582;53.100;6.686;2023-04-24T10:32:45;12.98;;;4.50;;
54683;SDS011;40582;53.100;6.686;2023-04-24T10:35:11;17.38;;;5.05;;
54683;SDS011;40582;53.100;6.686;2023-04-24T10:37:45;8.38;;;3.45;;
54683;SDS011;40582;53.100;6.686;2023-04-24T10:40:17;9.88;;;3.38;;
54683;SDS011;40582;53.100;6.686;2023-04-24T10:42:47;14.13;;;4.03;;
54683;SDS011;40582;53.100;6.686;2023-04-24T10:45:16;8.80;;;3.25;;
54683;SDS011;40582;53.100;6.686;2023-04-24T10:47:50;9.15;;;3.67;;
54683;SDS011;40582;53.100;6.686;2023-04-24T10:50:47;16.05;;;4.60;;
54683;SDS011;40582;53.100;6.686;2023-04-24T10:53:17;11.75;;;3.42;;
54683;SDS011;40582;53.100;6.686;2023-04-24T10:58:13;9.48;;;3.60;;
54683;SDS011;40582;53.100;6.686;2023-04-24T11:00:41;14.07;;;3.70;;
54683;SDS011;40582;53.100;6.686;2023-04-24T11:03:28;16.08;;;3.90;;
54683;SDS011;40582;53.100;6.686;2023-04-24T11:05:58;14.45;;;3.53;;
54683;SDS011;40582;53.100;6.686;2023-04-24T11:10:57;12.85;;;3.33;;
54683;SDS011;40582;53.100;6.686;2023-04-24T11:13:23;9.80;;;3.72;;
54683;SDS011;40582;53.100;6.686;2023-04-24T11:18:40;12.70;;;3.75;;
54683;SDS011;40582;53.100;6.686;2023-04-24T11:21:11;9.93;;;2.83;;
54683;SDS011;40582;53.100;6.686;2023-04-24T11:23:37;12.02;;;2.97;;
54683;SDS011;40582;53.100;6.686;2023-04-24T11:26:11;10.15;;;3.13;;
54683;SDS011;40582;53.100;6.686;2023-04-24T11:28:47;6.55;;;2.38;;
54683;SDS011;40582;53.100;6.686;2023-04-24T11:34:07;13.27;;;2.70;;
54683;SDS011;40582;53.100;6.686;2023-04-24T11:36:34;16.08;;;3.22;;
54683;SDS011;40582;53.100;6.686;2023-04-24T11:39:01;8.88;;;2.88;;
54683;SDS011;40582;53.100;6.686;2023-04-24T11:41:27;13.63;;;3.15;;
54683;SDS011;40582;53.100;6.686;2023-04-24T11:43:53;10.85;;;2.85;;
54683;SDS011;40582;53.100;6.686;2023-04-24T11:46:21;9.25;;;2.85;;
54683;SDS011;40582;53.100;6.686;2023-04-24T11:48:47;11.85;;;3.00;;
54683;SDS011;40582;53.100;6.686;2023-04-24T11:51:13;11.48;;;2.90;;
54683;SDS011;40582;53.100;6.686;2023-04-24T11:53:39;10.23;;;2.72;;
54683;SDS011;40582;53.100;6.686;2023-04-24T11:56:05;17.08;;;2.85;;
54683;SDS011;40582;53.100;6.686;2023-04-24T11:58:37;12.77;;;3.08;;
54683;SDS011;40582;53.100;6.686;2023-04-24T12:01:04;13.15;;;3.83;;
54683;SDS011;40582;53.100;6.686;2023-04-24T12:03:30;14.20;;;3.33;;
54683;SDS011;40582;53.100;6.686;2023-04-24T12:06:06;12.85;;;2.83;;
54683;SDS011;40582;53.100;6.686;2023-04-24T12:08:33;10.27;;;2.65;;
54683;SDS011;40582;53.100;6.686;2023-04-24T12:11:02;16.38;;;3.05;;
54683;SDS011;40582;53.100;6.686;2023-04-24T12:13:30;10.98;;;2.50;;
54683;SDS011;40582;53.100;6.686;2023-04-24T12:15:59;14.68;;;2.38;;
54683;SDS011;40582;53.100;6.686;2023-04-24T12:18:27;6.60;;;2.10;;
54683;SDS011;40582;53.100;6.686;2023-04-24T12:20:52;9.10;;;2.17;;
54683;SDS011;40582;53.100;6.686;2023-04-24T12:23:34;8.80;;;2.30;;
54683;SDS011;40582;53.100;6.686;2023-04-24T12:26:03;11.55;;;2.90;;
54683;SDS011;40582;53.100;6.686;2023-04-24T12:28:36;11.55;;;3.00;;
54683;SDS011;40582;53.100;6.686;2023-04-24T12:31:03;10.52;;;2.22;;
54683;SDS011;40582;53.100;6.686;2023-04-24T12:33:32;9.90;;;2.17;;
54683;SDS011;40582;53.100;6.686;2023-04-24T12:35:59;9.77;;;2.22;;
54683;SDS011;40582;53.100;6.686;2023-04-24T12:38:25;14.02;;;2.20;;
54683;SDS011;40582;53.100;6.686;2023-04-24T12:41:05;4.97;;;2.00;;
54683;SDS011;40582;53.100;6.686;2023-04-24T12:43:33;10.60;;;2.67;;
54683;SDS011;40582;53.100;6.686;2023-04-24T12:45:59;8.18;;;2.58;;
54683;SDS011;40582;53.100;6.686;2023-04-24T12:48:26;10.50;;;2.28;;
54683;SDS011;40582;53.100;6.686;2023-04-24T12:50:52;7.53;;;2.08;;
54683;SDS011;40582;53.100;6.686;2023-04-24T12:53:18;6.43;;;2.10;;
54683;SDS011;40582;53.100;6.686;2023-04-24T12:55:43;5.53;;;2.00;;
54683;SDS011;40582;53.100;6.686;2023-04-24T12:58:10;9.88;;;2.08;;
54683;SDS011;40582;53.100;6.686;2023-04-24T13:00:35;6.55;;;2.10;;
54683;SDS011;40582;53.100;6.686;2023-04-24T13:03:01;7.78;;;1.90;;
54683;SDS011;40582;53.100;6.686;2023-04-24T13:05:28;6.70;;;2.05;;
54683;SDS011;40582;53.100;6.686;2023-04-24T13:07:53;6.78;;;1.40;;
54683;SDS011;40582;53.100;6.686;2023-04-24T13:10:19;9.60;;;2.25;;
54683;SDS011;40582;53.100;6.686;2023-04-24T13:12:45;14.27;;;2.53;;
54683;SDS011;40582;53.100;6.686;2023-04-24T13:15:11;11.23;;;1.77;;
54683;SDS011;40582;53.100;6.686;2023-04-24T13:17:37;4.43;;;1.50;;
54683;SDS011;40582;53.100;6.686;2023-04-24T13:20:04;9.32;;;2.00;;
54683;SDS011;40582;53.100;6.686;2023-04-24T13:22:30;10.38;;;2.22;;
54683;SDS011;40582;53.100;6.686;2023-04-24T13:24:56;11.20;;;2.20;;
54683;SDS011;40582;53.100;6.686;2023-04-24T13:27:22;9.23;;;1.98;;
54683;SDS011;40582;53.100;6.686;2023-04-24T13:29:48;16.75;;;2.10;;
54683;SDS011;40582;53.100;6.686;2023-04-24T13:32:13;7.80;;;1.90;;
54683;SDS011;40582;53.100;6.686;2023-04-24T13:34:42;10.05;;;2.28;;
54683;SDS011;40582;53.100;6.686;2023-04-24T13:37:08;10.50;;;2.10;;
54683;SDS011;40582;53.100;6.686;2023-04-24T13:39:33;10.27;;;2.33;;
54683;SDS011;40582;53.100;6.686;2023-04-24T13:42:00;4.70;;;1.70;;
54683;SDS011;40582;53.100;6.686;2023-04-24T13:44:25;6.90;;;1.75;;
54683;SDS011;40582;53.100;6.686;2023-04-24T13:46:52;9.13;;;1.50;;
54683;SDS011;40582;53.100;6.686;2023-04-24T13:49:21;6.22;;;1.42;;
54683;SDS011;40582;53.100;6.686;2023-04-24T13:51:50;5.35;;;1.77;;
54683;SDS011;40582;53.100;6.686;2023-04-24T13:54:16;6.63;;;1.55;;
54683;SDS011;40582;53.100;6.686;2023-04-24T13:56:42;8.43;;;1.75;;
54683;SDS011;40582;53.100;6.686;2023-04-24T13:59:08;5.97;;;1.60;;
54683;SDS011;40582;53.100;6.686;2023-04-24T14:01:34;6.22;;;1.38;;
54683;SDS011;40582;53.100;6.686;2023-04-24T14:04:01;3.47;;;1.27;;
54683;SDS011;40582;53.100;6.686;2023-04-24T14:06:27;3.35;;;1.00;;
54683;SDS011;40582;53.100;6.686;2023-04-24T14:08:52;6.65;;;1.40;;
54683;SDS011;40582;53.100;6.686;2023-04-24T14:11:18;5.93;;;1.30;;
54683;SDS011;40582;53.100;6.686;2023-04-24T14:13:44;4.15;;;1.25;;
54683;SDS011;40582;53.100;6.686;2023-04-24T14:16:10;4.75;;;1.40;;
54683;SDS011;40582;53.100;6.686;2023-04-24T14:18:36;8.05;;;1.40;;
54683;SDS011;40582;53.100;6.686;2023-04-24T14:21:03;4.57;;;1.65;;
54683;SDS011;40582;53.100;6.686;2023-04-24T14:23:29;2.88;;;1.33;;
54683;SDS011;40582;53.100;6.686;2023-04-24T14:25:56;6.28;;;1.73;;
54683;SDS011;40582;53.100;6.686;2023-04-24T14:28:22;7.45;;;1.95;;
54683;SDS011;40582;53.100;6.686;2023-04-24T14:30:51;9.65;;;3.00;;
54683;SDS011;40582;53.100;6.686;2023-04-24T14:33:17;11.98;;;2.55;;
54683;SDS011;40582;53.100;6.686;2023-04-24T14:35:43;13.10;;;2.80;;
54683;SDS011;40582;53.100;6.686;2023-04-24T14:38:09;11.00;;;2.67;;
54683;SDS011;40582;53.100;6.686;2023-04-24T14:40:35;15.65;;;3.22;;
54683;SDS011;40582;53.100;6.686;2023-04-24T14:43:02;17.35;;;3.10;;
54683;SDS011;40582;53.100;6.686;2023-04-24T14:45:28;15.60;;;3.70;;
54683;SDS011;40582;53.100;6.686;2023-04-24T14:47:54;12.57;;;2.63;;
54683;SDS011;40582;53.100;6.686;2023-04-24T14:50:20;17.10;;;2.90;;
54683;SDS011;40582;53.100;6.686;2023-04-24T14:52:47;15.35;;;3.22;;